sensor_id;sensor_type;location;lat;lon;timestamp;temperature;humidity
69731;SHT31;56996;48.138;11.538;2023-11-21T00:02:07;8.75;71.83
69731;SHT31;56996;48.138;11.538;2023-11-21T00:04:33;8.75;72.16
69731;SHT31;56996;48.138;11.538;2023-11-21T00:06:59;8.75;72.31
69731;SHT31;56996;48.138;11.538;2023-11-21T00:09:25;8.74;72.28
69731;SHT31;56996;48.138;11.538;2023-11-21T00:11:51;8.76;72.49
69731;SHT31;56996;48.138;11.538;2023-11-21T00:14:17;8.73;72.91
69731;SHT31;56996;48.138;11.538;2023-11-21T00:16:43;8.70;73.09
69731;SHT31;56996;48.138;11.538;2023-11-21T00:19:09;8.69;73.16
69731;SHT31;56996;48.138;11.538;2023-11-21T00:21:35;8.67;73.36
69731;SHT31;56996;48.138;11.538;2023-11-21T00:24:01;8.63;73.50
69731;SHT31;56996;48.138;11.538;2023-11-21T00:26:27;8.63;73.35
69731;SHT31;56996;48.138;11.538;2023-11-21T00:28:59;8.64;73.15
69731;SHT31;56996;48.138;11.538;2023-11-21T00:31:25;8.64;73.29
69731;SHT31;56996;48.138;11.538;2023-11-21T00:33:51;8.63;73.36
69731;SHT31;56996;48.138;11.538;2023-11-21T00:36:17;8.60;73.53
69731;SHT31;56996;48.138;11.538;2023-11-21T00:38:44;8.61;73.32
69731;SHT31;56996;48.138;11.538;2023-11-21T00:41:10;8.61;73.09
69731;SHT31;56996;48.138;11.538;2023-11-21T00:43:36;8.65;73.06
69731;SHT31;56996;48.138;11.538;2023-11-21T00:46:06;8.67;73.21
69731;SHT31;56996;48.138;11.538;2023-11-21T00:48:35;8.69;73.21
69731;SHT31;56996;48.138;11.538;2023-11-21T00:51:03;8.68;73.22
69731;SHT31;56996;48.138;11.538;2023-11-21T00:53:29;8.66;73.45
69731;SHT31;56996;48.138;11.538;2023-11-21T00:55:55;8.66;73.57
69731;SHT31;56996;48.138;11.538;2023-11-21T00:58:24;8.65;73.82
69731;SHT31;56996;48.138;11.538;2023-11-21T01:00:51;8.65;74.00
69731;SHT31;56996;48.138;11.538;2023-11-21T01:03:17;8.63;74.06
69731;SHT31;56996;48.138;11.538;2023-11-21T01:05:43;8.62;74.11
69731;SHT31;56996;48.138;11.538;2023-11-21T01:08:09;8.62;74.06
69731;SHT31;56996;48.138;11.538;2023-11-21T01:10:36;8.61;74.18
69731;SHT31;56996;48.138;11.538;2023-11-21T01:13:02;8.59;74.23
69731;SHT31;56996;48.138;11.538;2023-11-21T01:15:33;8.60;74.10
69731;SHT31;56996;48.138;11.538;2023-11-21T01:17:59;8.59;74.23
69731;SHT31;56996;48.138;11.538;2023-11-21T01:20:25;8.56;74.42
69731;SHT31;56996;48.138;11.538;2023-11-21T01:22:52;8.53;74.46
69731;SHT31;56996;48.138;11.538;2023-11-21T01:25:20;8.51;74.54
69731;SHT31;56996;48.138;11.538;2023-11-21T01:27:48;8.48;74.72
69731;SHT31;56996;48.138;11.538;2023-11-21T01:30:14;8.46;74.59
69731;SHT31;56996;48.138;11.538;2023-11-21T01:32:42;8.45;74.60
69731;SHT31;56996;48.138;11.538;2023-11-21T01:35:09;8.44;74.68
69731;SHT31;56996;48.138;11.538;2023-11-21T01:37:36;8.44;74.63
69731;SHT31;56996;48.138;11.538;2023-11-21T01:40:03;8.44;74.69
69731;SHT31;56996;48.138;11.538;2023-11-21T01:42:36;8.43;74.66
69731;SHT31;56996;48.138;11.538;2023-11-21T01:45:02;8.44;74.54
69731;SHT31;56996;48.138;11.538;2023-11-21T01:47:31;8.44;74.61
69731;SHT31;56996;48.138;11.538;2023-11-21T01:50:00;8.44;74.58
69731;SHT31;56996;48.138;11.538;2023-11-21T01:52:27;8.45;74.66
69731;SHT31;56996;48.138;11.538;2023-11-21T01:54:54;8.45;74.52
69731;SHT31;56996;48.138;11.538;2023-11-21T01:57:20;8.46;74.26
69731;SHT31;56996;48.138;11.538;2023-11-21T01:59:47;8.49;74.06
69731;SHT31;56996;48.138;11.538;2023-11-21T02:02:15;8.52;74.17
69731;SHT31;56996;48.138;11.538;2023-11-21T02:04:42;8.54;73.77
69731;SHT31;56996;48.138;11.538;2023-11-21T02:07:08;8.55;73.41
69731;SHT31;56996;48.138;11.538;2023-11-21T02:09:34;8.57;73.12
69731;SHT31;56996;48.138;11.538;2023-11-21T02:12:04;8.60;72.94
69731;SHT31;56996;48.138;11.538;2023-11-21T02:14:30;8.60;72.84
69731;SHT31;56996;48.138;11.538;2023-11-21T02:16:57;8.61;72.87
69731;SHT31;56996;48.138;11.538;2023-11-21T02:19:23;8.64;72.65
69731;SHT31;56996;48.138;11.538;2023-11-21T02:21:54;8.67;72.70
69731;SHT31;56996;48.138;11.538;2023-11-21T02:24:25;8.67;72.98
69731;SHT31;56996;48.138;11.538;2023-11-21T02:26:51;8.69;73.16
69731;SHT31;56996;48.138;11.538;2023-11-21T02:29:18;8.66;73.33
69731;SHT31;56996;48.138;11.538;2023-11-21T02:31:48;8.66;73.59
69731;SHT31;56996;48.138;11.538;2023-11-21T02:34:21;8.65;73.54
69731;SHT31;56996;48.138;11.538;2023-11-21T02:36:49;8.64;73.85
69731;SHT31;56996;48.138;11.538;2023-11-21T02:39:15;8.57;74.42
69731;SHT31;56996;48.138;11.538;2023-11-21T02:41:47;8.51;74.70
69731;SHT31;56996;48.138;11.538;2023-11-21T02:44:13;8.51;74.54
69731;SHT31;56996;48.138;11.538;2023-11-21T02:46:40;8.52;74.46
69731;SHT31;56996;48.138;11.538;2023-11-21T02:49:07;8.51;74.29
69731;SHT31;56996;48.138;11.538;2023-11-21T02:51:36;8.50;74.10
69731;SHT31;56996;48.138;11.538;2023-11-21T02:54:05;8.50;74.41
69731;SHT31;56996;48.138;11.538;2023-11-21T02:56:33;8.51;74.50
69731;SHT31;56996;48.138;11.538;2023-11-21T02:59:00;8.52;74.52
69731;SHT31;56996;48.138;11.538;2023-11-21T03:01:26;8.51;74.56
69731;SHT31;56996;48.138;11.538;2023-11-21T03:03:53;8.51;74.51
69731;SHT31;56996;48.138;11.538;2023-11-21T03:06:21;8.49;74.53
69731;SHT31;56996;48.138;11.538;2023-11-21T03:08:48;8.46;74.60
69731;SHT31;56996;48.138;11.538;2023-11-21T03:11:14;8.46;74.78
69731;SHT31;56996;48.138;11.538;2023-11-21T03:13:40;8.44;74.79
69731;SHT31;56996;48.138;11.538;2023-11-21T03:16:08;8.44;74.86
69731;SHT31;56996;48.138;11.538;2023-11-21T03:18:36;8.44;74.87
69731;SHT31;56996;48.138;11.538;2023-11-21T03:21:06;8.44;74.77
69731;SHT31;56996;48.138;11.538;2023-11-21T03:23:35;8.44;74.87
69731;SHT31;56996;48.138;11.538;2023-11-21T03:26:03;8.43;74.89
69731;SHT31;56996;48.138;11.538;2023-11-21T03:28:29;8.43;74.96
69731;SHT31;56996;48.138;11.538;2023-11-21T03:30:56;8.41;74.91
69731;SHT31;56996;48.138;11.538;2023-11-21T03:33:22;8.41;74.83
69731;SHT31;56996;48.138;11.538;2023-11-21T03:35:49;8.41;74.89
69731;SHT31;56996;48.138;11.538;2023-11-21T03:38:15;8.40;74.76
69731;SHT31;56996;48.138;11.538;2023-11-21T03:40:42;8.42;74.72
69731;SHT31;56996;48.138;11.538;2023-11-21T03:43:08;8.41;74.96
69731;SHT31;56996;48.138;11.538;2023-11-21T03:45:34;8.40;74.96
69731;SHT31;56996;48.138;11.538;2023-11-21T03:48:00;8.41;74.71
69731;SHT31;56996;48.138;11.538;2023-11-21T03:50:30;8.41;74.78
69731;SHT31;56996;48.138;11.538;2023-11-21T03:52:58;8.40;74.76
69731;SHT31;56996;48.138;11.538;2023-11-21T03:55:24;8.39;74.72
69731;SHT31;56996;48.138;11.538;2023-11-21T03:57:50;8.35;74.76
69731;SHT31;56996;48.138;11.538;2023-11-21T04:00:18;8.30;75.11
69731;SHT31;56996;48.138;11.538;2023-11-21T04:02:47;8.27;75.07
69731;SHT31;56996;48.138;11.538;2023-11-21T04:05:14;8.24;75.32
69731;SHT31;56996;48.138;11.538;2023-11-21T04:07:40;8.19;75.52
69731;SHT31;56996;48.138;11.538;2023-11-21T04:10:07;8.15;75.40
69731;SHT31;56996;48.138;11.538;2023-11-21T04:12:35;8.15;75.13
69731;SHT31;56996;48.138;11.538;2023-11-21T04:15:02;8.16;75.10
69731;SHT31;56996;48.138;11.538;2023-11-21T04:17:29;8.14;75.10
69731;SHT31;56996;48.138;11.538;2023-11-21T04:19:57;8.14;75.15
69731;SHT31;56996;48.138;11.538;2023-11-21T04:22:23;8.14;75.17
69731;SHT31;56996;48.138;11.538;2023-11-21T04:24:50;8.15;75.20
69731;SHT31;56996;48.138;11.538;2023-11-21T04:27:16;8.15;75.19
69731;SHT31;56996;48.138;11.538;2023-11-21T04:29:44;8.14;75.39
69731;SHT31;56996;48.138;11.538;2023-11-21T04:32:09;8.15;75.40
69731;SHT31;56996;48.138;11.538;2023-11-21T04:34:36;8.15;75.49
69731;SHT31;56996;48.138;11.538;2023-11-21T04:37:02;8.15;75.58
69731;SHT31;56996;48.138;11.538;2023-11-21T04:39:29;8.15;75.70
69731;SHT31;56996;48.138;11.538;2023-11-21T04:41:55;8.16;75.26
69731;SHT31;56996;48.138;11.538;2023-11-21T04:44:21;8.17;75.19
69731;SHT31;56996;48.138;11.538;2023-11-21T04:46:47;8.18;75.26
69731;SHT31;56996;48.138;11.538;2023-11-21T04:49:13;8.17;75.59
69731;SHT31;56996;48.138;11.538;2023-11-21T04:51:40;8.20;75.67
69731;SHT31;56996;48.138;11.538;2023-11-21T04:54:06;8.21;75.61
69731;SHT31;56996;48.138;11.538;2023-11-21T04:56:33;8.22;75.70
69731;SHT31;56996;48.138;11.538;2023-11-21T04:58:59;8.22;75.45
69731;SHT31;56996;48.138;11.538;2023-11-21T05:01:25;8.22;75.36
69731;SHT31;56996;48.138;11.538;2023-11-21T05:03:51;8.23;75.76
69731;SHT31;56996;48.138;11.538;2023-11-21T05:06:18;8.22;75.70
69731;SHT31;56996;48.138;11.538;2023-11-21T05:08:44;8.20;75.85
69731;SHT31;56996;48.138;11.538;2023-11-21T05:11:10;8.16;75.98
69731;SHT31;56996;48.138;11.538;2023-11-21T05:13:36;8.17;75.98
69731;SHT31;56996;48.138;11.538;2023-11-21T05:16:05;8.19;75.89
69731;SHT31;56996;48.138;11.538;2023-11-21T05:18:33;8.17;76.07
69731;SHT31;56996;48.138;11.538;2023-11-21T05:21:00;8.15;76.25
69731;SHT31;56996;48.138;11.538;2023-11-21T05:23:26;8.12;76.21
69731;SHT31;56996;48.138;11.538;2023-11-21T05:25:52;8.10;76.18
69731;SHT31;56996;48.138;11.538;2023-11-21T05:28:18;8.11;76.26
69731;SHT31;56996;48.138;11.538;2023-11-21T05:30:45;8.07;76.38
69731;SHT31;56996;48.138;11.538;2023-11-21T05:33:11;8.07;76.25
69731;SHT31;56996;48.138;11.538;2023-11-21T05:35:37;8.07;76.29
69731;SHT31;56996;48.138;11.538;2023-11-21T05:38:03;8.07;76.13
69731;SHT31;56996;48.138;11.538;2023-11-21T05:40:29;8.09;76.14
69731;SHT31;56996;48.138;11.538;2023-11-21T05:42:55;8.10;76.15
69731;SHT31;56996;48.138;11.538;2023-11-21T05:45:21;8.14;75.92
69731;SHT31;56996;48.138;11.538;2023-11-21T05:47:47;8.16;75.72
69731;SHT31;56996;48.138;11.538;2023-11-21T05:50:14;8.16;75.57
69731;SHT31;56996;48.138;11.538;2023-11-21T05:52:42;8.18;75.63
69731;SHT31;56996;48.138;11.538;2023-11-21T05:55:10;8.19;75.65
69731;SHT31;56996;48.138;11.538;2023-11-21T05:57:37;8.21;75.46
69731;SHT31;56996;48.138;11.538;2023-11-21T06:02:59;8.24;75.23
69731;SHT31;56996;48.138;11.538;2023-11-21T06:05:25;8.24;75.32
69731;SHT31;56996;48.138;11.538;2023-11-21T06:07:53;8.21;75.27
69731;SHT31;56996;48.138;11.538;2023-11-21T06:10:24;8.17;75.29
69731;SHT31;56996;48.138;11.538;2023-11-21T06:12:52;8.14;75.39
69731;SHT31;56996;48.138;11.538;2023-11-21T06:17:59;8.15;75.47
69731;SHT31;56996;48.138;11.538;2023-11-21T06:20:28;8.12;75.40
69731;SHT31;56996;48.138;11.538;2023-11-21T06:22:55;8.09;75.47
69731;SHT31;56996;48.138;11.538;2023-11-21T06:25:31;8.11;75.61
69731;SHT31;56996;48.138;11.538;2023-11-21T06:28:01;8.14;75.69
69731;SHT31;56996;48.138;11.538;2023-11-21T06:30:28;8.17;75.84
69731;SHT31;56996;48.138;11.538;2023-11-21T06:32:54;8.19;75.75
69731;SHT31;56996;48.138;11.538;2023-11-21T06:35:21;8.23;75.63
69731;SHT31;56996;48.138;11.538;2023-11-21T06:37:48;8.23;75.49
69731;SHT31;56996;48.138;11.538;2023-11-21T06:40:16;8.22;75.37
69731;SHT31;56996;48.138;11.538;2023-11-21T06:42:44;8.23;75.39
69731;SHT31;56996;48.138;11.538;2023-11-21T06:45:10;8.26;75.30
69731;SHT31;56996;48.138;11.538;2023-11-21T06:47:37;8.27;75.39
69731;SHT31;56996;48.138;11.538;2023-11-21T06:50:04;8.31;75.36
69731;SHT31;56996;48.138;11.538;2023-11-21T06:52:30;8.31;75.22
69731;SHT31;56996;48.138;11.538;2023-11-21T06:54:56;8.32;75.08
69731;SHT31;56996;48.138;11.538;2023-11-21T06:57:25;8.34;74.90
69731;SHT31;56996;48.138;11.538;2023-11-21T06:59:51;8.36;74.97
69731;SHT31;56996;48.138;11.538;2023-11-21T07:02:17;8.38;75.07
69731;SHT31;56996;48.138;11.538;2023-11-21T07:04:45;8.38;74.94
69731;SHT31;56996;48.138;11.538;2023-11-21T07:07:12;8.40;74.90
69731;SHT31;56996;48.138;11.538;2023-11-21T07:09:38;8.41;74.97
69731;SHT31;56996;48.138;11.538;2023-11-21T07:12:04;8.44;74.93
69731;SHT31;56996;48.138;11.538;2023-11-21T07:14:33;8.46;74.50
69731;SHT31;56996;48.138;11.538;2023-11-21T07:17:06;8.46;74.21
69731;SHT31;56996;48.138;11.538;2023-11-21T07:19:33;8.47;74.08
69731;SHT31;56996;48.138;11.538;2023-11-21T07:21:59;8.46;73.94
69731;SHT31;56996;48.138;11.538;2023-11-21T07:24:26;8.48;73.87
69731;SHT31;56996;48.138;11.538;2023-11-21T07:26:53;8.49;73.77
69731;SHT31;56996;48.138;11.538;2023-11-21T07:29:23;8.48;73.63
69731;SHT31;56996;48.138;11.538;2023-11-21T07:31:52;8.49;73.66
69731;SHT31;56996;48.138;11.538;2023-11-21T07:34:20;8.51;73.75
69731;SHT31;56996;48.138;11.538;2023-11-21T07:36:47;8.54;73.74
69731;SHT31;56996;48.138;11.538;2023-11-21T07:39:13;8.57;73.56
69731;SHT31;56996;48.138;11.538;2023-11-21T07:41:41;8.62;73.49
69731;SHT31;56996;48.138;11.538;2023-11-21T07:44:14;8.68;73.37
69731;SHT31;56996;48.138;11.538;2023-11-21T07:46:45;8.72;73.23
69731;SHT31;56996;48.138;11.538;2023-11-21T07:49:12;8.79;73.43
69731;SHT31;56996;48.138;11.538;2023-11-21T07:51:43;8.92;73.06
69731;SHT31;56996;48.138;11.538;2023-11-21T07:54:09;8.97;72.66
69731;SHT31;56996;48.138;11.538;2023-11-21T07:56:36;9.00;72.50
69731;SHT31;56996;48.138;11.538;2023-11-21T07:59:02;9.03;72.44
69731;SHT31;56996;48.138;11.538;2023-11-21T08:01:28;9.03;72.14
69731;SHT31;56996;48.138;11.538;2023-11-21T08:03:54;9.03;72.09
69731;SHT31;56996;48.138;11.538;2023-11-21T08:06:23;9.06;72.19
69731;SHT31;56996;48.138;11.538;2023-11-21T08:08:51;9.11;72.27
69731;SHT31;56996;48.138;11.538;2023-11-21T08:11:17;9.16;72.06
69731;SHT31;56996;48.138;11.538;2023-11-21T08:13:45;9.20;71.81
69731;SHT31;56996;48.138;11.538;2023-11-21T08:16:12;9.21;71.58
69731;SHT31;56996;48.138;11.538;2023-11-21T08:18:38;9.21;71.58
69731;SHT31;56996;48.138;11.538;2023-11-21T08:21:06;9.23;71.70
69731;SHT31;56996;48.138;11.538;2023-11-21T08:23:32;9.26;71.59
69731;SHT31;56996;48.138;11.538;2023-11-21T08:25:58;9.28;71.42
69731;SHT31;56996;48.138;11.538;2023-11-21T08:28:24;9.32;71.38
69731;SHT31;56996;48.138;11.538;2023-11-21T08:30:52;9.36;71.36
69731;SHT31;56996;48.138;11.538;2023-11-21T08:33:20;9.37;71.76
69731;SHT31;56996;48.138;11.538;2023-11-21T08:35:46;9.42;71.40
69731;SHT31;56996;48.138;11.538;2023-11-21T08:38:13;9.41;71.58
69731;SHT31;56996;48.138;11.538;2023-11-21T08:40:39;9.50;71.24
69731;SHT31;56996;48.138;11.538;2023-11-21T08:43:05;9.59;71.20
69731;SHT31;56996;48.138;11.538;2023-11-21T08:45:31;9.67;70.99
69731;SHT31;56996;48.138;11.538;2023-11-21T08:48:00;9.73;70.59
69731;SHT31;56996;48.138;11.538;2023-11-21T08:50:27;9.78;70.20
69731;SHT31;56996;48.138;11.538;2023-11-21T08:52:53;9.86;70.10
69731;SHT31;56996;48.138;11.538;2023-11-21T08:55:20;9.89;70.09
69731;SHT31;56996;48.138;11.538;2023-11-21T08:57:47;9.99;69.68
69731;SHT31;56996;48.138;11.538;2023-11-21T09:00:13;10.06;69.67
69731;SHT31;56996;48.138;11.538;2023-11-21T09:02:42;10.17;69.59
69731;SHT31;56996;48.138;11.538;2023-11-21T09:05:14;10.33;68.97
69731;SHT31;56996;48.138;11.538;2023-11-21T09:07:42;10.44;68.96
69731;SHT31;56996;48.138;11.538;2023-11-21T09:10:09;10.55;68.50
69731;SHT31;56996;48.138;11.538;2023-11-21T09:12:36;10.61;67.92
69731;SHT31;56996;48.138;11.538;2023-11-21T09:15:04;10.69;68.17
69731;SHT31;56996;48.138;11.538;2023-11-21T09:17:32;10.76;67.89
69731;SHT31;56996;48.138;11.538;2023-11-21T09:20:02;10.78;67.75
69731;SHT31;56996;48.138;11.538;2023-11-21T09:22:32;10.77;67.73
69731;SHT31;56996;48.138;11.538;2023-11-21T09:24:58;10.79;67.54
69731;SHT31;56996;48.138;11.538;2023-11-21T09:27:25;10.77;67.90
69731;SHT31;56996;48.138;11.538;2023-11-21T09:29:53;10.78;67.74
69731;SHT31;56996;48.138;11.538;2023-11-21T09:32:20;10.84;68.26
69731;SHT31;56996;48.138;11.538;2023-11-21T09:34:48;10.83;67.66
69731;SHT31;56996;48.138;11.538;2023-11-21T09:37:17;10.83;68.36
69731;SHT31;56996;48.138;11.538;2023-11-21T09:39:43;10.87;68.06
69731;SHT31;56996;48.138;11.538;2023-11-21T09:42:13;10.87;68.06
69731;SHT31;56996;48.138;11.538;2023-11-21T09:44:46;10.83;67.82
69731;SHT31;56996;48.138;11.538;2023-11-21T09:47:25;10.83;68.01
69731;SHT31;56996;48.138;11.538;2023-11-21T09:49:51;10.90;67.50
69731;SHT31;56996;48.138;11.538;2023-11-21T09:52:29;10.98;67.75
69731;SHT31;56996;48.138;11.538;2023-11-21T09:54:58;10.98;67.64
69731;SHT31;56996;48.138;11.538;2023-11-21T09:57:26;11.10;67.11
69731;SHT31;56996;48.138;11.538;2023-11-21T09:59:53;11.22;67.15
69731;SHT31;56996;48.138;11.538;2023-11-21T10:02:27;11.35;66.47
69731;SHT31;56996;48.138;11.538;2023-11-21T10:04:56;11.38;66.45
69731;SHT31;56996;48.138;11.538;2023-11-21T10:07:23;11.40;66.51
69731;SHT31;56996;48.138;11.538;2023-11-21T10:09:50;11.49;66.56
69731;SHT31;56996;48.138;11.538;2023-11-21T10:12:17;11.66;65.90
69731;SHT31;56996;48.138;11.538;2023-11-21T10:14:43;11.87;65.28
69731;SHT31;56996;48.138;11.538;2023-11-21T10:17:15;11.99;65.14
69731;SHT31;56996;48.138;11.538;2023-11-21T10:19:46;12.02;64.37
69731;SHT31;56996;48.138;11.538;2023-11-21T10:22:16;11.94;64.43
69731;SHT31;56996;48.138;11.538;2023-11-21T10:24:44;11.84;64.79
69731;SHT31;56996;48.138;11.538;2023-11-21T10:27:19;11.79;65.03
69731;SHT31;56996;48.138;11.538;2023-11-21T10:29:45;11.69;64.57
69731;SHT31;56996;48.138;11.538;2023-11-21T10:32:11;11.44;64.69
69731;SHT31;56996;48.138;11.538;2023-11-21T10:34:38;11.38;65.98
69731;SHT31;56996;48.138;11.538;2023-11-21T10:37:22;11.43;65.78
69731;SHT31;56996;48.138;11.538;2023-11-21T10:39:49;11.38;65.32
69731;SHT31;56996;48.138;11.538;2023-11-21T10:42:15;11.26;65.62
69731;SHT31;56996;48.138;11.538;2023-11-21T10:44:46;11.24;66.05
69731;SHT31;56996;48.138;11.538;2023-11-21T10:47:12;11.35;65.64
69731;SHT31;56996;48.138;11.538;2023-11-21T10:49:39;11.43;65.57
69731;SHT31;56996;48.138;11.538;2023-11-21T10:52:06;11.59;65.33
69731;SHT31;56996;48.138;11.538;2023-11-21T10:54:32;11.74;65.42
69731;SHT31;56996;48.138;11.538;2023-11-21T10:56:59;11.77;64.82
69731;SHT31;56996;48.138;11.538;2023-11-21T10:59:30;11.64;64.79
69731;SHT31;56996;48.138;11.538;2023-11-21T11:01:58;11.62;65.23
69731;SHT31;56996;48.138;11.538;2023-11-21T11:04:27;11.63;65.51
69731;SHT31;56996;48.138;11.538;2023-11-21T11:06:54;11.66;65.21
69731;SHT31;56996;48.138;11.538;2023-11-21T11:09:23;11.65;65.35
69731;SHT31;56996;48.138;11.538;2023-11-21T11:11:50;11.78;65.21
69731;SHT31;56996;48.138;11.538;2023-11-21T11:14:18;11.90;65.03
69731;SHT31;56996;48.138;11.538;2023-11-21T11:16:45;11.87;64.39
69731;SHT31;56996;48.138;11.538;2023-11-21T11:19:11;11.81;64.76
69731;SHT31;56996;48.138;11.538;2023-11-21T11:27:55;11.92;64.54
69731;SHT31;56996;48.138;11.538;2023-11-21T11:33:23;11.93;64.10
69731;SHT31;56996;48.138;11.538;2023-11-21T11:39:02;12.09;63.76
69731;SHT31;56996;48.138;11.538;2023-11-21T11:41:31;12.14;63.81
69731;SHT31;56996;48.138;11.538;2023-11-21T11:44:01;12.13;63.73
69731;SHT31;56996;48.138;11.538;2023-11-21T11:46:40;12.05;63.51
69731;SHT31;56996;48.138;11.538;2023-11-21T11:49:24;11.81;63.91
69731;SHT31;56996;48.138;11.538;2023-11-21T11:55:03;11.82;64.50
69731;SHT31;56996;48.138;11.538;2023-11-21T11:57:42;11.81;64.73
69731;SHT31;56996;48.138;11.538;2023-11-21T12:02:48;11.85;64.07
69731;SHT31;56996;48.138;11.538;2023-11-21T12:05:17;11.86;64.03
69731;SHT31;56996;48.138;11.538;2023-11-21T12:07:52;11.86;64.15
69731;SHT31;56996;48.138;11.538;2023-11-21T12:10:21;11.83;64.28
69731;SHT31;56996;48.138;11.538;2023-11-21T12:12:54;11.85;63.96
69731;SHT31;56996;48.138;11.538;2023-11-21T12:15:25;11.88;64.03
69731;SHT31;56996;48.138;11.538;2023-11-21T12:17:55;11.94;63.93
69731;SHT31;56996;48.138;11.538;2023-11-21T12:20:21;11.96;63.49
69731;SHT31;56996;48.138;11.538;2023-11-21T12:22:52;11.87;63.38
69731;SHT31;56996;48.138;11.538;2023-11-21T12:25:27;11.87;64.85
69731;SHT31;56996;48.138;11.538;2023-11-21T12:27:58;11.98;63.88
69731;SHT31;56996;48.138;11.538;2023-11-21T12:30:34;12.05;63.26
69731;SHT31;56996;48.138;11.538;2023-11-21T12:33:03;12.06;63.09
69731;SHT31;56996;48.138;11.538;2023-11-21T12:35:34;12.06;63.73
69731;SHT31;56996;48.138;11.538;2023-11-21T12:38:01;12.02;63.18
69731;SHT31;56996;48.138;11.538;2023-11-21T12:40:29;12.00;63.29
69731;SHT31;56996;48.138;11.538;2023-11-21T12:42:56;11.92;63.10
69731;SHT31;56996;48.138;11.538;2023-11-21T12:45:24;11.86;63.49
69731;SHT31;56996;48.138;11.538;2023-11-21T12:48:03;11.72;63.92
69731;SHT31;56996;48.138;11.538;2023-11-21T12:50:37;11.40;65.55
69731;SHT31;56996;48.138;11.538;2023-11-21T12:53:05;11.05;66.65
69731;SHT31;56996;48.138;11.538;2023-11-21T12:55:43;10.88;66.88
69731;SHT31;56996;48.138;11.538;2023-11-21T12:58:15;10.87;66.05
69731;SHT31;56996;48.138;11.538;2023-11-21T13:00:42;10.87;66.77
69731;SHT31;56996;48.138;11.538;2023-11-21T13:03:13;10.91;67.35
69731;SHT31;56996;48.138;11.538;2023-11-21T13:05:46;10.92;68.08
69731;SHT31;56996;48.138;11.538;2023-11-21T13:08:17;10.95;68.58
69731;SHT31;56996;48.138;11.538;2023-11-21T13:10:48;10.93;68.58
69731;SHT31;56996;48.138;11.538;2023-11-21T13:13:19;10.95;69.12
69731;SHT31;56996;48.138;11.538;2023-11-21T13:15:51;10.95;69.01
69731;SHT31;56996;48.138;11.538;2023-11-21T13:18:26;10.94;69.51
69731;SHT31;56996;48.138;11.538;2023-11-21T13:20:54;10.93;69.51
69731;SHT31;56996;48.138;11.538;2023-11-21T13:23:22;10.94;69.48
69731;SHT31;56996;48.138;11.538;2023-11-21T13:25:49;10.89;69.73
69731;SHT31;56996;48.138;11.538;2023-11-21T13:28:27;10.95;70.01
69731;SHT31;56996;48.138;11.538;2023-11-21T13:30:57;11.00;69.82
69731;SHT31;56996;48.138;11.538;2023-11-21T13:33:28;10.98;70.03
69731;SHT31;56996;48.138;11.538;2023-11-21T13:35:54;10.97;70.33
69731;SHT31;56996;48.138;11.538;2023-11-21T13:38:22;10.99;70.39
69731;SHT31;56996;48.138;11.538;2023-11-21T13:40:49;11.00;70.04
69731;SHT31;56996;48.138;11.538;2023-11-21T13:43:22;11.00;70.12
69731;SHT31;56996;48.138;11.538;2023-11-21T13:45:52;11.03;70.04
69731;SHT31;56996;48.138;11.538;2023-11-21T13:48:29;11.01;69.85
69731;SHT31;56996;48.138;11.538;2023-11-21T13:51:03;11.04;69.47
69731;SHT31;56996;48.138;11.538;2023-11-21T13:53:46;11.03;69.72
69731;SHT31;56996;48.138;11.538;2023-11-21T13:56:16;10.89;69.42
69731;SHT31;56996;48.138;11.538;2023-11-21T13:58:46;10.68;69.11
69731;SHT31;56996;48.138;11.538;2023-11-21T14:01:23;10.59;69.35
69731;SHT31;56996;48.138;11.538;2023-11-21T14:04:01;10.52;69.76
69731;SHT31;56996;48.138;11.538;2023-11-21T14:06:35;10.49;69.95
69731;SHT31;56996;48.138;11.538;2023-11-21T14:09:13;10.47;69.83
69731;SHT31;56996;48.138;11.538;2023-11-21T14:11:57;10.37;69.52
69731;SHT31;56996;48.138;11.538;2023-11-21T14:14:27;10.26;70.51
69731;SHT31;56996;48.138;11.538;2023-11-21T14:16:56;10.14;70.57
69731;SHT31;56996;48.138;11.538;2023-11-21T14:19:28;9.98;71.18
69731;SHT31;56996;48.138;11.538;2023-11-21T14:21:58;9.85;71.27
69731;SHT31;56996;48.138;11.538;2023-11-21T14:24:27;9.70;71.68
69731;SHT31;56996;48.138;11.538;2023-11-21T14:26:54;9.61;71.92
69731;SHT31;56996;48.138;11.538;2023-11-21T14:29:21;9.54;70.98
69731;SHT31;56996;48.138;11.538;2023-11-21T14:31:49;9.50;70.91
69731;SHT31;56996;48.138;11.538;2023-11-21T14:34:17;9.44;71.93
69731;SHT31;56996;48.138;11.538;2023-11-21T14:36:48;9.50;72.65
69731;SHT31;56996;48.138;11.538;2023-11-21T14:39:15;9.58;72.90
69731;SHT31;56996;48.138;11.538;2023-11-21T14:41:53;9.67;73.15
69731;SHT31;56996;48.138;11.538;2023-11-21T14:44:25;9.68;73.02
69731;SHT31;56996;48.138;11.538;2023-11-21T14:46:54;9.68;72.57
69731;SHT31;56996;48.138;11.538;2023-11-21T14:49:24;9.66;72.50
69731;SHT31;56996;48.138;11.538;2023-11-21T14:51:53;9.63;72.30
69731;SHT31;56996;48.138;11.538;2023-11-21T14:54:29;9.63;72.00
69731;SHT31;56996;48.138;11.538;2023-11-21T14:57:08;9.65;72.27
69731;SHT31;56996;48.138;11.538;2023-11-21T14:59:45;9.68;72.60
69731;SHT31;56996;48.138;11.538;2023-11-21T15:02:17;9.73;73.27
69731;SHT31;56996;48.138;11.538;2023-11-21T15:04:48;9.74;73.03
69731;SHT31;56996;48.138;11.538;2023-11-21T15:07:18;9.73;72.58
69731;SHT31;56996;48.138;11.538;2023-11-21T15:09:45;9.73;72.58
69731;SHT31;56996;48.138;11.538;2023-11-21T15:12:11;9.73;72.49
69731;SHT31;56996;48.138;11.538;2023-11-21T15:17:16;9.68;71.83
69731;SHT31;56996;48.138;11.538;2023-11-21T15:19:51;9.66;71.75
69731;SHT31;56996;48.138;11.538;2023-11-21T15:22:18;9.66;72.22
69731;SHT31;56996;48.138;11.538;2023-11-21T15:24:45;9.65;72.66
69731;SHT31;56996;48.138;11.538;2023-11-21T15:27:15;9.65;73.30
69731;SHT31;56996;48.138;11.538;2023-11-21T15:29:42;9.61;73.58
69731;SHT31;56996;48.138;11.538;2023-11-21T15:32:09;9.58;73.74
69731;SHT31;56996;48.138;11.538;2023-11-21T15:34:36;9.57;74.12
69731;SHT31;56996;48.138;11.538;2023-11-21T15:37:03;9.50;74.36
69731;SHT31;56996;48.138;11.538;2023-11-21T15:39:33;9.42;74.59
69731;SHT31;56996;48.138;11.538;2023-11-21T15:42:00;9.38;74.45
69731;SHT31;56996;48.138;11.538;2023-11-21T15:44:26;9.37;74.10
69731;SHT31;56996;48.138;11.538;2023-11-21T15:46:53;9.33;74.13
69731;SHT31;56996;48.138;11.538;2023-11-21T15:49:20;9.28;74.26
69731;SHT31;56996;48.138;11.538;2023-11-21T15:51:48;9.17;74.31
69731;SHT31;56996;48.138;11.538;2023-11-21T15:54:24;9.07;73.72
69731;SHT31;56996;48.138;11.538;2023-11-21T15:56:52;9.00;73.83
69731;SHT31;56996;48.138;11.538;2023-11-21T15:59:23;8.93;73.79